Time;durP1;ratioP1;P1;durP2;ratioP2;P2;SDS_P1;SDS_P2;PMS_P1;PMS_P2;Temp;Humidity;BMP_temperature;BMP_pressure;BME280_temperature;BME280_humidity;BME280_pressure;Samples;Min_cycle;Max_cycle;Signal;HPM_P1;HPM_P2
2022/10/17 00:01:50;;;;;;;4.73;2.67;;;14.60;99.90;;;;;;5014004;28;20716;-57
2022/10/17 00:04:16;;;;;;;4.57;2.67;;;14.60;99.90;;;;;;5012735;28;20565;-57
2022/10/17 00:06:41;;;;;;;3.40;2.57;;;14.60;99.90;;;;;;5007780;28;20188;-58
2022/10/17 00:09:08;;;;;;;2.57;2.37;;;14.50;99.90;;;;;;5013859;28;20690;-60
2022/10/17 00:11:34;;;;;;;4.03;2.30;;;14.50;99.90;;;;;;5013926;28;20169;-57
2022/10/17 00:14:01;;;;;;;2.70;2.50;;;14.50;99.90;;;;;;5013767;28;20286;-59
2022/10/17 00:16:29;;;;;;;3.37;2.90;;;14.50;99.90;;;;;;5013558;28;20227;-60
2022/10/17 00:18:56;;;;;;;2.70;2.50;;;14.50;99.90;;;;;;5014108;28;20634;-57
2022/10/17 00:21:22;;;;;;;3.33;2.43;;;14.50;99.90;;;;;;5013489;28;20180;-55
2022/10/17 00:23:48;;;;;;;4.03;2.40;;;14.40;99.90;;;;;;5013419;28;20191;-56
2022/10/17 00:26:15;;;;;;;4.60;2.40;;;14.40;99.90;;;;;;5012407;28;20237;-59
2022/10/17 00:28:40;;;;;;;3.50;2.13;;;14.30;99.90;;;;;;5013442;28;20194;-56
2022/10/17 00:31:06;;;;;;;3.07;2.23;;;14.30;99.90;;;;;;5013558;28;20252;-58
2022/10/17 00:33:33;;;;;;;5.17;2.70;;;14.20;99.90;;;;;;5013079;28;20287;-58
2022/10/17 00:36:08;;;;;;;4.83;2.90;;;14.20;99.90;;;;;;5013461;28;20183;-56
2022/10/17 00:38:35;;;;;;;3.33;2.80;;;14.10;99.90;;;;;;5013295;28;20206;-55
2022/10/17 00:41:01;;;;;;;6.00;3.23;;;14.10;99.90;;;;;;4995758;28;20176;-59
2022/10/17 00:43:28;;;;;;;5.47;2.77;;;14.00;99.90;;;;;;5012837;28;20196;-57
2022/10/17 00:45:54;;;;;;;4.87;2.70;;;14.00;99.90;;;;;;5013361;28;20178;-59
2022/10/17 00:48:22;;;;;;;9.97;3.10;;;14.00;99.90;;;;;;5013146;28;20175;-58
2022/10/17 00:50:49;;;;;;;3.20;2.90;;;14.10;99.90;;;;;;5013217;28;20169;-59
2022/10/17 00:53:15;;;;;;;4.03;2.93;;;14.00;99.90;;;;;;5012708;28;20198;-58
2022/10/17 00:55:48;;;;;;;2.90;2.70;;;14.00;99.90;;;;;;5012824;28;20203;-60
2022/10/17 00:58:15;;;;;;;3.93;3.13;;;14.00;99.90;;;;;;5012985;28;20247;-60
2022/10/17 01:00:41;;;;;;;6.33;3.40;;;14.10;99.90;;;;;;5012898;28;20181;-57
2022/10/17 01:03:07;;;;;;;7.20;3.50;;;14.00;99.90;;;;;;5012749;28;20230;-59
2022/10/17 01:05:33;;;;;;;4.53;2.90;;;14.00;99.90;;;;;;5012814;28;20205;-59
2022/10/17 01:07:59;;;;;;;5.80;3.57;;;13.90;99.90;;;;;;5012815;28;20257;-56
2022/10/17 01:10:55;;;;;;;4.73;3.30;;;13.80;99.90;;;;;;5012710;28;20595;-57
2022/10/17 01:13:41;;;;;;;6.07;3.20;;;13.80;99.90;;;;;;5007743;28;20234;-58
2022/10/17 01:16:07;;;;;;;4.43;3.23;;;13.80;99.90;;;;;;5012602;28;20177;-61
2022/10/17 01:19:01;;;;;;;4.47;3.20;;;13.80;99.90;;;;;;5012515;28;20206;-58
2022/10/17 01:21:58;;;;;;;5.00;2.80;;;13.80;99.90;;;;;;5012525;28;20171;-60
2022/10/17 01:24:43;;;;;;;3.53;2.90;;;13.70;99.90;;;;;;5012119;28;20246;-56
2022/10/17 01:27:35;;;;;;;2.80;2.60;;;13.70;99.90;;;;;;5012709;28;20660;-59
2022/10/17 01:30:33;;;;;;;2.90;2.70;;;13.70;99.90;;;;;;5012406;28;20163;-59
2022/10/17 01:33:13;;;;;;;2.87;2.57;;;13.60;99.90;;;;;;5012385;28;20195;-59
2022/10/17 01:36:06;;;;;;;3.03;2.57;;;13.60;99.90;;;;;;5012264;28;20161;-60
2022/10/17 01:38:46;;;;;;;2.83;2.63;;;13.60;99.90;;;;;;5012091;28;20216;-59
2022/10/17 01:41:27;;;;;;;3.73;2.53;;;13.70;99.90;;;;;;5012322;28;20198;-60
2022/10/17 01:43:57;;;;;;;3.07;2.50;;;13.70;99.90;;;;;;5011984;28;20615;-59
2022/10/17 01:46:31;;;;;;;6.57;3.10;;;13.60;99.90;;;;;;5012166;28;20200;-60
2022/10/17 01:49:00;;;;;;;4.17;2.80;;;13.70;99.90;;;;;;5012222;28;20165;-60
2022/10/17 01:51:37;;;;;;;6.43;3.30;;;13.70;99.90;;;;;;5011983;28;20171;-59
2022/10/17 01:54:10;;;;;;;4.83;3.10;;;13.70;99.90;;;;;;5011655;28;20221;-60
2022/10/17 01:56:38;;;;;;;5.40;3.30;;;13.70;99.90;;;;;;5011988;28;20570;-60
2022/10/17 01:59:13;;;;;;;2.90;2.60;;;13.70;99.90;;;;;;5011918;28;20199;-58
2022/10/17 02:01:42;;;;;;;3.33;2.10;;;13.60;99.90;;;;;;5012016;28;20157;-58
2022/10/17 02:04:10;;;;;;;2.50;2.00;;;13.60;99.90;;;;;;5011672;28;20269;-60
2022/10/17 02:06:36;;;;;;;3.20;2.27;;;13.50;99.90;;;;;;5011805;28;20255;-59
2022/10/17 02:09:22;;;;;;;3.00;1.93;;;13.60;99.90;;;;;;5011828;28;20174;-57
2022/10/17 02:11:57;;;;;;;2.10;1.90;;;13.50;99.90;;;;;;5011998;28;20345;-59
2022/10/17 02:14:54;;;;;;;2.20;2.00;;;13.40;99.90;;;;;;5011347;28;20239;-60
2022/10/17 02:17:33;;;;;;;2.17;1.97;;;13.40;99.90;;;;;;5011659;28;20305;-61
2022/10/17 02:20:21;;;;;;;4.50;2.37;;;13.40;99.90;;;;;;5011825;28;20156;-59
2022/10/17 02:23:01;;;;;;;2.30;2.10;;;13.40;99.90;;;;;;5011600;28;20202;-60
2022/10/17 02:25:50;;;;;;;3.70;2.20;;;13.40;99.90;;;;;;5011544;28;20164;-61
2022/10/17 02:28:18;;;;;;;2.70;1.80;;;13.50;99.90;;;;;;5011594;28;20707;-59
2022/10/17 02:30:55;;;;;;;3.20;2.20;;;13.50;99.90;;;;;;5011608;28;20256;-58
2022/10/17 02:33:36;;;;;;;4.57;2.27;;;13.40;99.90;;;;;;5011253;28;20566;-58
2022/10/17 02:36:06;;;;;;;4.27;3.50;;;13.40;99.90;;;;;;5011735;28;20211;-59
2022/10/17 02:38:33;;;;;;;3.43;3.13;;;13.30;99.90;;;;;;5011646;28;20213;-56
2022/10/17 02:41:00;;;;;;;3.33;3.03;;;13.30;99.90;;;;;;5011792;28;20172;-57
2022/10/17 02:43:26;;;;;;;4.47;3.07;;;13.30;99.90;;;;;;5012240;28;20192;-60
2022/10/17 02:45:53;;;;;;;4.13;2.80;;;13.30;99.90;;;;;;4998587;28;20173;-58
2022/10/17 02:48:23;;;;;;;4.20;2.67;;;13.20;99.90;;;;;;5011678;28;20208;-60
2022/10/17 02:51:11;;;;;;;5.90;3.17;;;13.20;99.90;;;;;;5015502;28;20250;-56
2022/10/17 02:54:00;;;;;;;4.97;2.80;;;13.20;99.90;;;;;;5015145;28;20277;-58
2022/10/17 02:56:29;;;;;;;4.13;2.90;;;13.10;99.90;;;;;;5015085;28;20165;-57
2022/10/17 02:58:57;;;;;;;5.70;2.70;;;13.10;99.90;;;;;;5015339;28;20178;-56
2022/10/17 03:01:23;;;;;;;5.23;2.57;;;13.00;99.90;;;;;;5015168;28;20195;-58
2022/10/17 03:03:49;;;;;;;2.93;2.37;;;13.00;99.90;;;;;;5014884;28;20239;-58
2022/10/17 03:06:15;;;;;;;2.40;2.20;;;12.90;99.90;;;;;;5015114;28;20589;-57
2022/10/17 03:08:40;;;;;;;2.00;1.90;;;12.90;99.90;;;;;;5015121;28;20243;-58
2022/10/17 03:11:06;;;;;;;2.20;2.00;;;12.80;99.90;;;;;;5014929;28;20256;-59
2022/10/17 03:13:32;;;;;;;1.77;1.67;;;12.80;99.90;;;;;;5014816;28;20192;-58
2022/10/17 03:15:57;;;;;;;1.73;1.63;;;12.80;99.90;;;;;;5014793;28;20172;-58
2022/10/17 03:18:23;;;;;;;3.27;1.80;;;12.70;99.90;;;;;;5014955;28;20198;-57
2022/10/17 03:20:49;;;;;;;3.43;1.97;;;12.70;99.90;;;;;;5014773;28;20508;-59
2022/10/17 03:23:14;;;;;;;2.03;1.50;;;12.80;99.90;;;;;;5014633;28;20212;-57
2022/10/17 03:25:40;;;;;;;1.50;1.40;;;12.80;99.90;;;;;;5014742;28;20238;-57
2022/10/17 03:28:06;;;;;;;2.00;1.50;;;12.70;99.90;;;;;;5014754;28;20177;-54
2022/10/17 03:30:32;;;;;;;1.77;1.67;;;12.80;99.90;;;;;;5026925;28;20180;-58
2022/10/17 03:32:58;;;;;;;1.90;1.80;;;12.80;99.90;;;;;;5033981;28;20250;-56
2022/10/17 03:35:25;;;;;;;1.50;1.40;;;12.90;99.90;;;;;;5034201;28;20176;-55
2022/10/17 03:37:51;;;;;;;1.90;1.50;;;12.90;99.90;;;;;;5034198;28;20200;-55
2022/10/17 03:40:17;;;;;;;1.37;1.30;;;12.70;99.90;;;;;;5034269;28;20195;-57
2022/10/17 03:42:43;;;;;;;1.20;1.20;;;12.60;99.90;;;;;;5034017;28;20219;-58
2022/10/17 03:45:08;;;;;;;3.80;2.93;;;12.40;99.90;;;;;;5034250;28;20172;-58
2022/10/17 03:47:34;;;;;;;6.50;5.80;;;12.50;99.90;;;;;;5034280;28;20179;-57
2022/10/17 03:50:00;;;;;;;1.93;1.83;;;12.50;99.90;;;;;;5034081;28;20215;-59
2022/10/17 03:52:25;;;;;;;1.63;1.53;;;12.40;99.90;;;;;;5033945;28;20288;-57
2022/10/17 03:54:51;;;;;;;1.33;1.30;;;12.40;99.90;;;;;;5033564;28;20202;-58
2022/10/17 03:57:18;;;;;;;1.50;1.40;;;12.30;99.90;;;;;;5034307;28;20752;-60
2022/10/17 03:59:43;;;;;;;1.87;1.77;;;12.20;99.90;;;;;;5015928;28;20543;-60
2022/10/17 04:02:09;;;;;;;6.53;4.73;;;12.30;99.90;;;;;;5034001;28;20177;-58
2022/10/17 04:04:35;;;;;;;26.43;23.73;;;12.30;99.90;;;;;;5033389;28;20196;-58
2022/10/17 04:07:00;;;;;;;36.23;32.57;;;12.40;99.90;;;;;;5033863;28;20184;-58
2022/10/17 04:09:26;;;;;;;13.23;11.93;;;12.40;99.90;;;;;;5033626;28;20186;-59
2022/10/17 04:11:51;;;;;;;6.80;3.17;;;12.30;99.90;;;;;;5033783;28;20187;-59
2022/10/17 04:14:17;;;;;;;6.73;6.17;;;12.30;99.90;;;;;;5033128;28;20192;-58
2022/10/17 04:16:42;;;;;;;5.77;5.27;;;12.30;99.90;;;;;;5033595;28;20183;-60
2022/10/17 04:19:11;;;;;;;2.80;1.90;;;12.40;99.90;;;;;;5033471;28;20641;-57
2022/10/17 04:21:37;;;;;;;3.83;1.90;;;12.30;99.90;;;;;;5033594;28;20653;-57
2022/10/17 04:24:03;;;;;;;1.50;1.40;;;12.20;99.90;;;;;;5032946;28;20226;-60
2022/10/17 04:26:29;;;;;;;1.67;1.57;;;12.10;99.90;;;;;;5033524;28;20168;-57
2022/10/17 04:28:54;;;;;;;2.13;1.93;;;12.10;99.90;;;;;;5033355;28;20590;-57
2022/10/17 04:31:20;;;;;;;2.77;2.57;;;12.20;99.90;;;;;;5033240;28;20234;-58
2022/10/17 04:33:47;;;;;;;3.87;3.00;;;12.20;99.90;;;;;;5032910;28;20191;-58
2022/10/17 04:36:14;;;;;;;2.03;1.93;;;12.20;99.90;;;;;;5033246;28;20167;-58
2022/10/17 04:38:40;;;;;;;1.93;1.83;;;12.30;99.90;;;;;;5033145;28;20202;-59
2022/10/17 04:41:09;;;;;;;1.90;1.80;;;12.20;99.90;;;;;;5033131;28;20172;-59
2022/10/17 04:43:36;;;;;;;1.80;1.70;;;12.20;99.90;;;;;;5032769;28;20192;-58
2022/10/17 04:46:08;;;;;;;2.00;1.90;;;12.10;99.90;;;;;;5015133;28;20182;-59
2022/10/17 04:48:34;;;;;;;1.63;1.53;;;12.20;99.90;;;;;;5033239;28;20180;-60
2022/10/17 04:51:03;;;;;;;2.80;2.20;;;12.20;99.90;;;;;;5032781;28;20221;-60
2022/10/17 04:53:34;;;;;;;3.27;3.07;;;12.20;99.90;;;;;;5063830;22;21150;-56
2022/10/17 04:55:59;;;;;;;3.57;3.27;;;12.20;99.90;;;;;;5031077;28;20186;-54
2022/10/17 04:58:27;;;;;;;2.87;2.67;;;12.20;99.90;;;;;;5031189;28;20200;-51
2022/10/17 05:00:52;;;;;;;4.80;3.40;;;12.30;99.90;;;;;;5032177;28;20704;-56
2022/10/17 05:03:18;;;;;;;3.43;2.90;;;12.20;99.90;;;;;;5031345;28;20271;-52
2022/10/17 05:05:43;;;;;;;2.90;2.70;;;12.20;99.90;;;;;;5032219;28;20179;-53
2022/10/17 05:08:10;;;;;;;3.07;2.77;;;12.10;99.90;;;;;;5032201;28;20179;-54
2022/10/17 05:10:40;;;;;;;3.27;2.63;;;12.10;99.90;;;;;;5031184;28;20187;-53
2022/10/17 05:13:07;;;;;;;3.07;2.50;;;12.00;99.90;;;;;;5030569;28;20211;-53
2022/10/17 05:15:33;;;;;;;2.50;2.30;;;12.00;99.90;;;;;;5032235;28;20175;-54
2022/10/17 05:17:59;;;;;;;3.00;2.80;;;12.00;99.90;;;;;;5031991;28;20622;-49
2022/10/17 05:20:25;;;;;;;2.10;2.00;;;11.90;99.90;;;;;;5031888;28;20199;-50
2022/10/17 05:22:50;;;;;;;2.60;1.80;;;12.00;99.90;;;;;;5031863;28;20172;-50
2022/10/17 05:25:16;;;;;;;2.93;2.00;;;12.00;99.90;;;;;;5031317;28;20664;-50
2022/10/17 05:27:41;;;;;;;2.33;2.13;;;11.90;99.90;;;;;;5030984;28;20184;-52
2022/10/17 05:30:08;;;;;;;2.90;2.43;;;11.90;99.90;;;;;;5031614;28;20246;-54
2022/10/17 05:32:33;;;;;;;3.93;2.40;;;11.90;99.90;;;;;;5031575;28;20187;-49
2022/10/17 05:34:59;;;;;;;2.70;2.10;;;11.90;99.90;;;;;;5031430;28;20699;-53
2022/10/17 05:37:24;;;;;;;2.23;2.10;;;11.80;99.90;;;;;;5031634;28;20195;-51
2022/10/17 05:39:50;;;;;;;2.10;2.00;;;11.90;99.90;;;;;;5031260;28;20246;-50
2022/10/17 05:42:16;;;;;;;2.40;2.20;;;11.80;99.90;;;;;;5030464;28;20200;-51
2022/10/17 05:44:41;;;;;;;2.30;2.20;;;11.80;99.90;;;;;;5030857;28;20738;-52
2022/10/17 05:47:07;;;;;;;2.00;1.90;;;11.80;99.90;;;;;;5031521;28;20649;-50
2022/10/17 05:49:33;;;;;;;2.80;2.60;;;11.80;99.90;;;;;;5030665;28;20545;-49
2022/10/17 05:51:59;;;;;;;3.03;2.80;;;11.80;99.90;;;;;;5031433;28;20176;-49
2022/10/17 05:54:25;;;;;;;2.67;2.40;;;11.70;99.90;;;;;;5030586;28;20218;-51
2022/10/17 05:56:54;;;;;;;2.30;2.20;;;11.80;99.90;;;;;;5030541;28;20202;-50
2022/10/17 05:59:20;;;;;;;2.20;1.90;;;11.80;99.90;;;;;;5031168;28;20217;-51
2022/10/17 06:01:46;;;;;;;1.90;1.80;;;11.90;99.90;;;;;;5029147;28;20192;-53
2022/10/17 06:04:12;;;;;;;1.50;1.40;;;11.90;99.90;;;;;;5030867;28;20657;-50
2022/10/17 06:06:38;;;;;;;1.37;1.20;;;11.90;99.90;;;;;;5030632;28;20176;-53
2022/10/17 06:09:05;;;;;;;1.73;1.63;;;12.00;99.90;;;;;;5030312;28;20183;-50
2022/10/17 06:11:30;;;;;;;1.33;1.30;;;12.00;99.90;;;;;;5030471;28;20266;-49
2022/10/17 06:13:56;;;;;;;2.40;1.60;;;12.00;99.90;;;;;;5030259;28;20641;-50
2022/10/17 06:16:22;;;;;;;1.93;1.73;;;12.10;99.90;;;;;;5030696;28;20244;-50
2022/10/17 06:18:47;;;;;;;1.67;1.57;;;12.20;99.90;;;;;;5027694;28;20212;-53
2022/10/17 06:21:17;;;;;;;1.97;1.80;;;12.30;99.90;;;;;;5044305;28;20184;-52
2022/10/17 06:23:43;;;;;;;3.13;1.93;;;12.40;99.90;;;;;;5029910;28;20203;-53
2022/10/17 06:26:09;;;;;;;1.97;1.87;;;12.40;99.90;;;;;;5030031;28;20179;-55
2022/10/17 06:28:35;;;;;;;2.33;2.23;;;12.40;99.90;;;;;;5030507;28;20233;-51
2022/10/17 06:31:06;;;;;;;2.37;2.27;;;12.40;99.90;;;;;;5030332;28;20180;-49
2022/10/17 06:33:31;;;;;;;2.33;2.13;;;12.50;99.90;;;;;;5030267;28;20381;-51
2022/10/17 06:35:57;;;;;;;2.10;2.00;;;12.60;99.90;;;;;;5030185;28;20192;-50
2022/10/17 06:38:23;;;;;;;2.07;1.97;;;12.70;99.90;;;;;;5030856;28;20246;-52
2022/10/17 06:40:48;;;;;;;5.33;2.40;;;12.70;99.90;;;;;;5030411;28;20267;-51
2022/10/17 06:43:14;;;;;;;3.00;2.10;;;12.80;99.90;;;;;;5030585;28;20262;-53
2022/10/17 06:45:40;;;;;;;2.63;2.43;;;13.00;99.90;;;;;;5029898;28;20173;-52
2022/10/17 06:48:07;;;;;;;2.30;2.20;;;13.10;99.90;;;;;;5031043;28;20666;-50
2022/10/17 06:50:33;;;;;;;2.30;2.20;;;13.10;99.90;;;;;;5029396;28;20194;-54
2022/10/17 06:52:59;;;;;;;3.00;2.10;;;13.30;99.90;;;;;;5046554;28;20656;-53
2022/10/17 06:55:24;;;;;;;3.27;2.40;;;13.30;99.90;;;;;;5050202;28;20234;-50
2022/10/17 06:57:51;;;;;;;5.60;2.37;;;13.40;99.90;;;;;;5050476;28;20654;-51
2022/10/17 07:00:17;;;;;;;3.50;2.03;;;13.50;99.90;;;;;;5050566;28;20177;-50
2022/10/17 07:02:42;;;;;;;2.43;2.20;;;13.60;99.90;;;;;;5050571;28;20172;-50
2022/10/17 07:05:09;;;;;;;2.77;2.20;;;13.70;99.90;;;;;;5050327;28;20197;-52
2022/10/17 07:07:34;;;;;;;1.83;1.73;;;13.70;99.90;;;;;;5050623;28;20225;-51
2022/10/17 07:10:02;;;;;;;4.33;2.10;;;13.70;99.90;;;;;;5050599;28;20171;-53
2022/10/17 07:12:28;;;;;;;2.17;2.07;;;13.80;99.90;;;;;;5050516;28;20176;-52
2022/10/17 07:14:53;;;;;;;2.40;2.30;;;13.90;99.90;;;;;;5050201;28;20668;-52
2022/10/17 07:17:19;;;;;;;2.50;2.30;;;14.00;99.90;;;;;;5050330;28;20198;-50
2022/10/17 07:19:45;;;;;;;4.13;2.50;;;14.20;99.90;;;;;;5050602;28;20174;-49
2022/10/17 07:22:11;;;;;;;2.63;2.50;;;14.40;99.90;;;;;;5050507;28;20167;-52
2022/10/17 07:24:36;;;;;;;4.28;2.88;;;14.40;99.90;;;;;;5049461;28;20408;-53
2022/10/17 07:27:02;;;;;;;3.03;2.73;;;14.80;99.90;;;;;;5033968;28;20180;-53
2022/10/17 07:29:28;;;;;;;3.20;3.00;;;14.70;99.90;;;;;;5030467;28;20207;-51
2022/10/17 07:31:53;;;;;;;4.07;3.77;;;14.60;99.90;;;;;;5030550;28;20203;-52
2022/10/17 07:34:19;;;;;;;3.40;3.10;;;14.60;99.90;;;;;;5030214;28;20252;-51
2022/10/17 07:36:45;;;;;;;5.90;5.13;;;14.60;99.90;;;;;;5033926;28;20230;-51
2022/10/17 07:39:11;;;;;;;3.43;3.20;;;14.50;99.90;;;;;;5034006;28;20164;-50
2022/10/17 07:41:36;;;;;;;5.17;4.67;;;14.40;99.90;;;;;;5031755;28;20176;-50
2022/10/17 07:44:03;;;;;;;5.73;5.23;;;14.50;99.90;;;;;;5032787;28;20196;-52
2022/10/17 07:46:28;;;;;;;4.77;4.37;;;14.70;99.90;;;;;;5033500;28;20687;-53
2022/10/17 07:48:54;;;;;;;5.60;4.67;;;14.80;99.90;;;;;;5033539;28;20172;-54
2022/10/17 07:51:20;;;;;;;4.60;4.20;;;15.00;99.90;;;;;;5033776;28;20697;-50
2022/10/17 07:53:46;;;;;;;3.77;3.50;;;15.10;99.90;;;;;;5033092;28;20226;-51
2022/10/17 07:56:12;;;;;;;5.10;3.97;;;15.30;99.90;;;;;;5032917;28;20279;-51
2022/10/17 07:58:39;;;;;;;4.20;3.90;;;15.30;99.90;;;;;;5032676;28;20200;-52
2022/10/17 08:01:09;;;;;;;28.87;4.30;;;15.10;99.90;;;;;;5033172;28;20183;-54
2022/10/17 08:03:35;;;;;;;2.23;2.10;;;15.10;99.90;;;;;;5033231;28;20179;-51
2022/10/17 08:06:02;;;;;;;2.20;2.10;;;15.40;99.90;;;;;;5033313;28;20171;-52
2022/10/17 08:08:28;;;;;;;2.30;2.20;;;15.80;99.90;;;;;;5033301;28;20259;-50
2022/10/17 08:10:55;;;;;;;2.73;2.53;;;16.20;99.90;;;;;;5033163;28;20204;-53
2022/10/17 08:13:21;;;;;;;3.30;2.17;;;16.50;99.90;;;;;;5032907;28;20202;-52
2022/10/17 08:15:47;;;;;;;2.33;2.10;;;16.70;99.90;;;;;;5033125;28;20180;-50
2022/10/17 08:18:17;;;;;;;3.60;2.80;;;17.30;99.90;;;;;;5032912;28;20249;-53
2022/10/17 08:20:43;;;;;;;2.80;2.60;;;18.30;99.90;;;;;;5033072;28;20175;-52
2022/10/17 08:23:08;;;;;;;3.50;2.97;;;18.80;99.90;;;;;;5032816;28;20279;-53
2022/10/17 08:25:36;;;;;;;3.13;2.40;;;19.40;99.90;;;;;;5032957;28;20175;-53
2022/10/17 08:28:02;;;;;;;4.93;2.80;;;20.40;99.90;;;;;;5032960;28;20176;-49
2022/10/17 08:30:29;;;;;;;3.58;2.60;;;20.90;99.90;;;;;;5033032;28;20168;-50
2022/10/17 08:32:55;;;;;;;4.20;2.97;;;21.00;99.90;;;;;;5032803;28;20174;-52
2022/10/17 08:35:21;;;;;;;3.10;2.80;;;21.20;99.90;;;;;;5032697;28;20652;-48
2022/10/17 08:37:47;;;;;;;4.32;2.55;;;21.60;99.90;;;;;;5032621;28;20192;-52
2022/10/17 08:40:25;;;;;;;3.97;2.53;;;21.70;99.90;;;;;;5032765;28;20168;-52
2022/10/17 08:43:09;;;;;;;2.60;2.40;;;21.70;99.90;;;;;;5032817;28;20164;-51
2022/10/17 08:45:44;;;;;;;2.30;2.20;;;21.00;99.90;;;;;;5032639;28;20175;-53
2022/10/17 08:48:16;;;;;;;2.80;2.60;;;20.40;99.90;;;;;;5032115;28;20544;-52
2022/10/17 08:50:53;;;;;;;4.63;3.17;;;19.90;99.90;;;;;;5032523;28;20174;-54
2022/10/17 08:53:40;;;;;;;6.22;3.05;;;19.30;99.90;;;;;;5032173;28;20633;-49
2022/10/17 08:56:22;;;;;;;2.78;2.58;;;18.70;99.90;;;;;;5032471;28;20172;-48
2022/10/17 08:58:48;;;;;;;4.57;3.28;;;19.00;99.90;;;;;;5032361;28;20888;-49
2022/10/17 09:01:40;;;;;;;3.20;3.00;;;19.00;99.90;;;;;;5032409;28;20168;-53
2022/10/17 09:04:30;;;;;;;4.63;3.33;;;19.10;99.90;;;;;;5031944;28;20234;-50
2022/10/17 09:07:25;;;;;;;3.65;3.35;;;18.60;99.90;;;;;;5032326;28;20175;-49
2022/10/17 09:10:28;;;;;;;4.40;4.00;;;18.30;99.90;;;;;;5032192;28;20640;-51
2022/10/17 09:13:18;;;;;;;3.80;3.50;;;18.00;99.90;;;;;;5032293;28;20541;-50
2022/10/17 09:16:00;;;;;;;3.90;3.43;;;18.20;99.90;;;;;;5032345;28;20152;-55
2022/10/17 09:18:34;;;;;;;4.33;4.03;;;18.40;99.90;;;;;;5032103;28;20196;-52
2022/10/17 09:21:35;;;;;;;5.80;4.88;;;18.70;99.90;;;;;;5032005;28;20252;-51
2022/10/17 09:24:07;;;;;;;5.90;4.45;;;19.20;99.90;;;;;;5031719;28;20239;-52
2022/10/17 09:26:32;;;;;;;5.00;4.50;;;20.10;99.90;;;;;;5031901;28;20197;-50
2022/10/17 09:28:59;;;;;;;5.07;4.60;;;20.10;99.90;;;;;;5031909;28;20178;-50
2022/10/17 09:31:31;;;;;;;4.90;4.45;;;19.40;99.90;;;;;;5031939;28;20173;-53
2022/10/17 09:34:00;;;;;;;4.97;4.57;;;18.90;99.90;;;;;;5031435;28;20195;-56
2022/10/17 09:36:31;;;;;;;5.72;5.22;;;18.50;99.90;;;;;;5031698;28;20199;-54
2022/10/17 09:39:00;;;;;;;7.97;7.22;;;18.50;99.90;;;;;;5031774;28;20188;-53
2022/10/17 09:41:39;;;;;;;10.73;9.73;;;18.30;99.90;;;;;;5031733;28;20530;-53
2022/10/17 09:44:22;;;;;;;11.13;10.03;;;17.90;99.90;;;;;;5031255;28;20187;-50
2022/10/17 09:46:55;;;;;;;9.37;8.57;;;17.70;99.90;;;;;;5031522;28;20160;-50
2022/10/17 09:49:33;;;;;;;12.27;11.17;;;17.70;99.90;;;;;;5031572;28;20172;-56
2022/10/17 09:52:05;;;;;;;16.63;13.30;;;17.50;99.90;;;;;;5031507;28;20235;-51
2022/10/17 09:54:43;;;;;;;14.80;13.40;;;17.40;99.90;;;;;;5031020;28;20253;-51
2022/10/17 09:57:10;;;;;;;15.17;13.67;;;17.40;99.90;;;;;;5031325;28;20565;-51
2022/10/17 09:59:43;;;;;;;16.77;15.17;;;17.40;99.90;;;;;;5030758;28;20179;-56
2022/10/17 10:02:12;;;;;;;16.27;14.67;;;17.40;99.90;;;;;;5031341;28;20172;-55
2022/10/17 10:05:14;;;;;;;17.80;15.93;;;17.50;99.90;;;;;;5031126;28;20184;-50
2022/10/17 10:07:40;;;;;;;19.67;16.90;;;17.50;99.90;;;;;;5031416;28;20180;-53
2022/10/17 10:10:23;;;;;;;25.43;19.67;;;17.70;99.90;;;;;;5031438;28;20667;-52
2022/10/17 10:13:14;;;;;;;18.73;16.13;;;17.90;99.90;;;;;;5031504;28;20171;-55
2022/10/17 10:15:48;;;;;;;19.90;17.90;;;17.90;99.90;;;;;;5031593;28;20226;-53
2022/10/17 10:18:35;;;;;;;19.20;17.40;;;18.10;99.90;;;;;;5031702;28;20204;-52
2022/10/17 10:21:11;;;;;;;18.63;16.73;;;18.20;99.90;;;;;;5031591;28;20179;-51
2022/10/17 10:23:40;;;;;;;21.37;19.17;;;18.10;99.90;;;;;;5031481;28;20542;-53
2022/10/17 10:26:22;;;;;;;21.97;19.77;;;18.00;99.90;;;;;;5031798;28;20176;-50
2022/10/17 10:28:52;;;;;;;20.73;18.77;;;17.90;99.90;;;;;;5031623;28;20168;-50
2022/10/17 10:31:29;;;;;;;20.57;18.50;;;18.20;99.90;;;;;;5031835;28;20172;-55
2022/10/17 10:33:55;;;;;;;18.67;16.97;;;19.30;99.90;;;;;;5031446;28;20542;-49
2022/10/17 10:36:22;;;;;;;15.15;13.70;;;20.10;99.90;;;;;;5031610;28;20172;-52
2022/10/17 10:38:56;;;;;;;18.80;17.00;;;21.40;99.90;;;;;;5031452;28;20661;-52
2022/10/17 10:41:22;;;;;;;16.15;14.73;;;24.10;99.90;;;;;;5031593;28;20242;-53
2022/10/17 10:43:50;;;;;;;14.85;12.27;;;26.00;99.90;;;;;;5031261;28;20188;-49
2022/10/17 10:46:26;;;;;;;12.02;11.02;;;27.80;99.90;;;;;;5031555;28;20168;-53
2022/10/17 10:48:58;;;;;;;11.32;10.13;;;28.70;99.90;;;;;;5031445;28;20152;-53
2022/10/17 10:51:37;;;;;;;11.52;10.52;;;30.20;99.90;;;;;;5031349;28;20167;-54
2022/10/17 10:54:17;;;;;;;12.07;10.95;;;31.60;99.90;;;;;;5066138;22;20639;-59
2022/10/17 10:56:50;;;;;;;10.48;9.57;;;31.80;98.50;;;;;;5028127;28;20167;-59
2022/10/17 10:59:49;;;;;;;10.40;8.05;;;32.30;98.30;;;;;;5030598;28;20167;-59
2022/10/17 11:02:22;;;;;;;23.60;21.35;;;33.10;96.40;;;;;;5031317;28;20203;-59
2022/10/17 11:05:03;;;;;;;25.38;23.27;;;34.20;94.50;;;;;;5030691;28;20222;-59
2022/10/17 11:07:54;;;;;;;30.52;27.92;;;34.70;93.70;;;;;;5031019;28;20271;-59
2022/10/17 11:10:45;;;;;;;13.45;12.10;;;35.20;93.10;;;;;;5032601;28;20257;-60
2022/10/17 11:13:19;;;;;;;9.68;8.77;;;36.00;90.70;;;;;;5032037;28;20179;-59
2022/10/17 11:15:57;;;;;;;8.60;7.88;;;35.30;92.30;;;;;;5035219;28;20194;-59
2022/10/17 11:18:27;;;;;;;7.93;7.32;;;35.20;91.40;;;;;;5035165;28;20190;-59
2022/10/17 11:20:57;;;;;;;7.50;6.80;;;34.80;92.00;;;;;;5034810;28;20175;-59
2022/10/17 11:23:45;;;;;;;9.13;8.32;;;35.40;90.70;;;;;;5034492;28;20163;-58
2022/10/17 11:26:25;;;;;;;8.55;7.85;;;35.10;90.80;;;;;;5034443;28;20164;-58
2022/10/17 11:28:56;;;;;;;7.65;6.80;;;34.60;89.90;;;;;;5034271;28;20175;-57
2022/10/17 11:31:29;;;;;;;10.73;9.10;;;34.90;91.00;;;;;;5034314;28;20180;-59
2022/10/17 11:34:04;;;;;;;9.77;8.77;;;34.40;91.20;;;;;;5034166;28;20195;-57
2022/10/17 11:36:35;;;;;;;7.38;6.68;;;35.20;88.80;;;;;;5034498;28;20171;-58
2022/10/17 11:39:03;;;;;;;8.68;7.93;;;35.70;88.90;;;;;;5034364;28;20203;-58
2022/10/17 11:41:43;;;;;;;7.28;6.68;;;35.80;86.10;;;;;;5034118;28;20164;-59
2022/10/17 11:44:37;;;;;;;8.77;8.07;;;35.40;88.20;;;;;;5033929;28;20232;-58
2022/10/17 11:47:14;;;;;;;8.65;7.95;;;35.50;86.70;;;;;;5034279;28;20645;-58
2022/10/17 11:49:47;;;;;;;7.63;6.88;;;34.90;88.30;;;;;;5033991;28;20230;-57
2022/10/17 11:52:38;;;;;;;8.18;7.45;;;34.80;88.20;;;;;;5034240;28;20175;-59
2022/10/17 11:55:13;;;;;;;8.77;7.88;;;34.90;88.90;;;;;;5033650;28;20211;-58
2022/10/17 11:57:58;;;;;;;8.10;7.32;;;35.20;88.60;;;;;;5033953;28;20556;-59
2022/10/17 12:00:33;;;;;;;8.43;7.40;;;35.20;87.60;;;;;;5034225;28;20576;-58
2022/10/17 12:03:17;;;;;;;8.50;7.65;;;35.10;87.10;;;;;;5033692;28;20174;-58
2022/10/17 12:05:42;;;;;;;9.00;8.30;;;35.40;87.50;;;;;;5033896;28;20611;-59
2022/10/17 12:08:36;;;;;;;8.80;7.47;;;35.60;86.30;;;;;;5033816;28;20171;-58
2022/10/17 12:11:22;;;;;;;8.40;7.70;;;35.30;84.80;;;;;;5033788;28;20205;-59
2022/10/17 12:13:53;;;;;;;8.88;7.97;;;35.10;82.90;;;;;;5033369;28;20281;-58
2022/10/17 12:16:19;;;;;;;9.50;8.43;;;34.90;85.50;;;;;;5033767;28;20199;-59
2022/10/17 12:18:46;;;;;;;10.35;9.43;;;34.80;84.80;;;;;;5033321;28;20251;-59
2022/10/17 12:21:11;;;;;;;9.27;8.32;;;33.80;88.00;;;;;;5033510;28;20163;-57
2022/10/17 12:23:38;;;;;;;10.68;9.77;;;33.30;89.80;;;;;;5033306;28;20257;-58
2022/10/17 12:26:06;;;;;;;10.38;9.27;;;34.00;88.80;;;;;;5033697;28;20548;-59
2022/10/17 12:28:46;;;;;;;9.98;9.18;;;34.20;88.40;;;;;;5033505;28;20179;-59
2022/10/17 12:31:15;;;;;;;10.13;9.15;;;33.30;88.60;;;;;;5033413;28;20175;-59
2022/10/17 12:33:50;;;;;;;10.40;9.40;;;33.00;90.50;;;;;;5032929;28;20597;-59
2022/10/17 12:36:16;;;;;;;9.73;8.93;;;32.60;90.50;;;;;;5031966;28;20179;-59
2022/10/17 12:38:50;;;;;;;10.65;9.10;;;32.60;90.80;;;;;;5032436;28;20253;-57
2022/10/17 12:41:36;;;;;;;9.65;8.75;;;32.50;91.40;;;;;;5033224;28;20187;-56
2022/10/17 12:44:22;;;;;;;10.10;9.20;;;32.30;92.00;;;;;;5032675;28;20195;-57
2022/10/17 12:47:08;;;;;;;9.98;9.18;;;32.60;91.90;;;;;;5013206;28;20536;-56
2022/10/17 12:49:54;;;;;;;10.63;9.73;;;33.30;90.40;;;;;;5013237;28;20172;-58
2022/10/17 12:52:33;;;;;;;12.25;11.05;;;32.60;91.10;;;;;;5013118;28;20156;-58
2022/10/17 12:55:02;;;;;;;11.52;10.35;;;32.20;91.70;;;;;;5012715;28;20673;-56
2022/10/17 12:57:46;;;;;;;14.45;13.13;;;32.30;91.90;;;;;;5022762;28;20233;-58
2022/10/17 13:00:33;;;;;;;10.43;9.13;;;32.20;92.10;;;;;;5032715;28;20172;-58
2022/10/17 13:03:16;;;;;;;10.65;9.75;;;32.00;91.70;;;;;;5032828;28;20218;-57
2022/10/17 13:05:51;;;;;;;11.73;10.68;;;31.40;92.70;;;;;;5032723;28;20171;-60